Kirkwood, New Jersey
Current Conditions -  °F | °C
As of 10:54 AM on Friday 19 Dec 2014 (Local Time) from KVAY Reporting Station
Overcast Overcast  
Wind Chill: 33°   Ceiling: 3000
Heat Index: 38°   Visibility: 10mi
Dew Point: 26°   Wind: 6mph
Humidity: 62%   Direction: NA
Pressure: 30.08"   Gusts: NA
Location:  39.8445°N, 74.9532°W
Report Text: KVAY 191554Z AUTO VRB05KT 10SM OVC030 03/M03 A3008 RMK AO2 SLP185 T00331033
Loading
Personal Weather Stations






























Interactive Weather Map New forecast layout! Learn more

10-Day Weather Forecast

Advertisements
Track Severe Weather on mobile